Aérodrome :
LOGIN :

S'inscrire | Disclaimer

   EN    FR    IT 

 










Légende :    VFR   VFR Marginal   IFR   IFR Intensif   IFR Très Intensif
Visi : 
Plafond : 
>= 8 km
>= 3000ft
5 à 8 km
1000 à 3000 ft
1500m à 5 km
500 à 1000 ft
800 à 1500m
200 à 500 ft
< 800m
< 200 ft
Symboles :   Orages  Brouillard  Fortes neiges  Fortes précipitations  Vent > 20 kt
SIGMETs :   Divers  Orages  Givrage  Turbulence  Onde Orograph.  Cendres Volcan.







- Altitude de l'aérodrome : 219 ft
- Code IATA : DNR
- Voir les cartes d'approche


LFRD - Dinard

DERNIER METAR :
  • 252000Z AUTO 01010KT CAVOK 07/M03 Q1014 NOSIG

METARs EXPIRÉS :
  • 251930Z AUTO 01011KT 9999 FEW046 08/M02 Q1014 NOSIG
  • 251900Z AUTO 01010KT 9999 FEW044 BKN058 08/M02 Q1014 TEMPO 36015G25KT SHRA
  • 251830Z AUTO 01011KT 9999 SCT042 BKN049 08/M01 Q1014 TEMPO 36015G25KT SHRA
  • 251800Z AUTO 36014KT 9999 SCT043 09/M02 Q1013 TEMPO 36015G25KT SHRA
  • 251730Z AUTO 36015KT CAVOK 09/M01 Q1013 TEMPO 36015G25KT SHRA

TAF TAF LFRD
Valide du 25 à 18h jusqu'au 26 à 18h UTC


251700Z 2518/2618 36012KT 9999 SCT030
TEMPO 2518/2520 36015G25KT
PROB30
TEMPO 2518/2520 5000 SHRA
TEMPO 2602/2618 36015G25KT 4000 SHRAGS BKN015CB
PROB30
TEMPO 2602/2616 3000 TSRAGS
ATIS : +33 2 99 16 81 50
Pas de NOTAMs connus pour ce terrain.



MET'MAP, la Météo Aéronautique d'un coup d'oeil ! - Copyright ORBIFLY Décembre 2007 - Disclaimer

ORBIFLY MET'MAP TEAM :

Programmation & Développement : Alexandra Zaïnal
Conception & Développement : Baudouin d'Aumeries
Co-Programmation & Développement : Marc-Olivier Méhu
Soutien technique & logistique : Manuel Goepfert

Contact : metmap@orbifly.com




SOURCES & CREDITS :

   NOAA